• Join FlightAware (Why Join?)
  • Login
  • US Flag 
06:42PM EDT


 

Airport Tracker/Info


-or-


 

Live Flight TrackerFlight Track Log ✈ TCF3494 ✈ 10-Jun-2013 ✈ KORD - KLGA

Flight Track Log - Related Links

Times and Time Zones

All times are in EDT time to prevent confusion due to time zone crossing. See the TCF3494 flight status page for this flight to view local times or setup timezone preferences in your user account.

Time Position Orientation Groundspeed Altitude Reporting Facility
EDT Latitude Longitude Course Direction KTS MPH feet Rate Location/Type
10:58PM 41.9833 -87.8500 91° East 167 192 2,400  Level Chicago TRACON
10:58PM 41.9822 -87.7867 91° East 209 241 3,900 2,700 Climbing Chicago Center
10:59PM 41.9772 -87.6806 94° East 274 315 7,400 3,360 Climbing Chicago Center
11:00PM 41.9719 -87.5697 94° East 296 341 10,800 3,000 Climbing Chicago Center
11:01PM 41.9661 -87.4506 94° East 318 366 13,600 2,760 Climbing Chicago Center
11:03PM 41.9600 -87.3256 94° East 333 383 16,500 2,700 Climbing Chicago Center
11:04PM 41.9539 -87.1933 94° East 347 399 19,200 2,400 Climbing Chicago Center
11:05PM 41.9475 -87.0542 93° East 366 421 21,400 2,100 Climbing Chicago Center
11:06PM 41.9492 -86.8725 89° East 402 463 23,600 2,100 Climbing Chicago Center
11:07PM 41.9511 -86.7175 89° East 414 476 25,800 1,860 Climbing Chicago Center
11:08PM 41.9514 -86.5567 90° East 424 488 27,500 1,620 Climbing Chicago Center
11:09PM 41.9539 -86.3936 89° East 436 502 29,200 1,560 Climbing Chicago Center
11:10PM 41.9556 -86.2283 89° East 441 507 30,700 1,260 Climbing Chicago Center
11:11PM 41.9408 -86.0603 91° East 452 520 31,900 1,200 Climbing Chicago Center
11:12PM 41.9378 -85.8914 91° East 453 521 33,200 1,260 Climbing Chicago Center
11:13PM 41.9461 -85.7239 86° East 449 517 34,500 840 Climbing Chicago Center
11:14PM 41.9539 -85.5586 86° East 443 510 35,000 240 Climbing Chicago Center
11:15PM 41.9575 -85.3917 88° East 442 509 35,000  Level Chicago Center
11:16PM 41.9428 -85.2258 97° East 445 512 35,000  Level Chicago Center
11:17PM 41.9278 -85.0594 97° East 447 514 35,000  Level Chicago Center
11:18PM 41.9139 -84.8925 96° East 451 519 35,000  Level Chicago Center
11:19PM 41.8981 -84.7264 97° East 449 517 35,000  Level Chicago Center
11:20PM 41.8831 -84.5633 97° East 443 510 35,000  Level Chicago Center
11:21PM 41.8658 -84.3697 97° East 437 503 35,000  Level Chicago Center
11:21PM 41.8614 -84.3278 98° East 446 513 35,000  Level Cleveland Center
11:22PM 41.8400 -84.1481 99° East 446 513 35,000  Level Cleveland Center
11:23PM 41.8239 -83.9883 98° East 446 513 35,000  Level Cleveland Center
11:24PM 41.8100 -83.8233 96° East 446 513 35,000  Level Cleveland Center
11:25PM 41.7931 -83.6747 99° East 453 521 35,000  Level Cleveland Center
11:26PM 41.7767 -83.5097 98° East 453 521 35,000  Level Cleveland Center
11:27PM 41.7600 -83.3419 98° East 447 514 35,000  Level Cleveland Center
11:28PM 41.7450 -83.1742 97° East 452 520 35,000  Level Cleveland Center
11:29PM 41.7278 -83.0122 98° East 447 514 35,000  Level Cleveland Center
11:30PM 41.7083 -82.8472 99° East 447 514 35,000  Level Cleveland Center
11:31PM 41.6906 -82.6797 98° East 447 514 35,000  Level Cleveland Center
11:32PM 41.6725 -82.5181 98° East 447 514 35,000  Level Cleveland Center
11:33PM 41.6544 -82.3561 98° East 447 514 35,000  Level Cleveland Center
11:34PM 41.6381 -82.1947 98° East 447 514 35,000  Level Cleveland Center
11:35PM 41.6194 -82.0303 99° East 447 514 35,000  Level Cleveland Center
11:36PM 41.6006 -81.8714 99° East 447 514 35,000  Level Cleveland Center
11:37PM 41.5814 -81.6936 98° East 447 514 35,000  Level Cleveland Center
11:38PM 41.5619 -81.5322 99° East 447 514 35,000  Level Cleveland Center
11:39PM 41.5425 -81.3711 99° East 447 514 35,000  Level Cleveland Center
11:40PM 41.5206 -81.2100 100° East 447 514 35,000  Level Cleveland Center
11:41PM 41.5047 -81.0461 97° East 447 514 35,000  Level Cleveland Center
11:42PM 41.4906 -80.8797 96° East 447 514 35,000  Level Cleveland Center
11:43PM 41.4783 -80.7328 96° East 447 514 35,000  Level Cleveland Center
11:44PM 41.4639 -80.5664 97° East 447 514 35,000 -600 Level Cleveland Center
11:45PM 41.4469 -80.3919 97° East 461 531 33,900 -1,020 Descending Cleveland Center
11:46PM 41.4300 -80.2092 97° East 467 537 33,000 -480 Descending Cleveland Center
11:47PM 41.4147 -80.0433 97° East 461 531 33,000  Level Cleveland Center
11:48PM 41.3972 -79.8772 98° East 461 531 33,000  Level Cleveland Center
11:49PM 41.3814 -79.7114 97° East 456 525 33,000  Level Cleveland Center
11:50PM 41.3656 -79.5622 98° East 456 525 33,000  Level Cleveland Center
11:51PM 41.3494 -79.3964 97° East 456 525 33,000  Level Cleveland Center
11:52PM 41.3306 -79.2144 98° East 456 525 33,000  Level Cleveland Center
11:53PM 41.3139 -79.0489 98° East 456 525 33,000  Level Cleveland Center
11:54PM 41.2972 -78.8972 98° East 456 525 33,000  Level Cleveland Center
11:55PM 41.2800 -78.7292 98° East 451 519 33,000  Level Cleveland Center
11:56PM 41.2628 -78.5667 98° East 451 519 33,000  Level Cleveland Center
11:58PM 41.2342 -78.3064 98° East 441 507 33,000  Level New York Center
11:59PM 41.2133 -78.1411 99° East 441 507 33,000  Level New York Center
12:00AM 41.1944 -77.9736 98° East 447 514 33,000  Level New York Center
12:01AM 41.1731 -77.8114 100° East 452 520 33,000  Level New York Center
12:02AM 41.1517 -77.6408 99° East 452 520 33,000  Level New York Center
12:03AM 41.1300 -77.4761 100° East 452 520 33,000  Level New York Center
12:04AM 41.1044 -77.2975 101° East 447 514 33,000 -600 Level New York Center
12:05AM 41.0844 -77.1303 99° East 453 521 31,900 -1,680 Descending New York Center
12:06AM 41.0619 -76.9656 100° East 453 521 29,700 -2,160 Descending New York Center
12:07AM 41.0408 -76.8069 100° East 448 516 27,600 -2,100 Descending New York Center
12:08AM 41.0192 -76.6564 101° East 431 496 25,500 -2,040 Descending New York Center
12:09AM 40.9847 -76.5106 107° East 419 482 23,600 -2,040 Descending New York Center
12:10AM 40.9517 -76.3731 108° East 405 466 21,600 -1,920 Descending New York Center
12:11AM 40.9183 -76.2414 108° East 387 445 19,800 -1,980 Descending New York Center
12:12AM 40.8889 -76.1097 106° East 370 426 17,700 -1,860 Descending New York Center
12:13AM 40.8592 -75.9842 107° East 370 426 16,100 -1,620 Descending New York Center
12:14AM 40.8308 -75.8694 108° East 365 420 14,500 -1,560 Descending New York Center
12:15AM 40.7969 -75.7353 108° East 365 420 13,000 -780 Descending New York Center
12:16AM 40.7664 -75.6125 108° East 365 420 13,000  Level New York Center
12:17AM 40.7397 -75.5011 108° East 353 406 13,000  Level New York Center
12:18AM 40.7114 -75.3786 107° East 353 406 13,000  Level New York Center
12:19AM 40.6869 -75.2539 104° East 353 406 13,000 -480 Level New York Center
12:20AM 40.6500 -75.1256 111° Southeast 344 396 12,100 -1,320 Descending New York Center
12:21AM 40.5944 -75.0511 134° Southeast 323 372 10,400 -1,080 Descending New York Center
12:22AM 40.5522 -74.9528 119° Southeast 312 359 10,000 -240 Descending New York Center
12:23AM 40.5206 -74.8444 111° Southeast 306 352 10,000  Level New York Center
12:24AM 40.4883 -74.7442 113° Southeast 306 352 10,000 -120 Level New York Center
12:25AM 40.4622 -74.6581 112° Southeast 265 305 9,800 -840 Descending New York Center
12:26AM 40.4378 -74.5775 112° Southeast 236 272 8,400 -1,440 Descending New York Center
12:27AM 40.4447 -74.4853 84° East 260 299 7,000 -720 Descending New York Center
12:28AM 40.4708 -74.3831 71° East 260 299 7,000 -420 Level New York Center
12:29AM 40.5000 -74.3000 65° Northeast 268 308 6,200 -1,080 Descending New York TRACON
12:30AM 40.5167 -74.1833 79° East 262 302 4,800 -1,260 Descending New York TRACON
12:31AM 40.5500 -74.1000 62° Northeast 261 300 3,600 -1,140 Descending New York TRACON
12:32AM 40.5833 -74.0333 57° Northeast 270 311 2,700 -540 Descending New York TRACON
12:33AM 40.6500 -73.9833 30° Northeast 264 304 2,600 -600 Descending New York TRACON
12:34AM 40.7000 -73.9333 37° Northeast 216 249 1,500 -1,020 Descending New York TRACON
12:35AM 40.7500 -73.9000 27° Northeast 151 174 600 -900 Descending New York TRACON
12:38AM 40.7667 -73.8667 30° Northeast  Level FlightAware Approximate
12:45AM 40.7772 -73.8726 30° Northeast  Level Estimated